Time;durP1;ratioP1;P1;durP2;ratioP2;P2;SDS_P1;SDS_P2;PMS_P1;PMS_P2;Temp;Humidity;BMP_temperature;BMP_pressure;BME280_temperature;BME280_humidity;BME280_pressure;Samples;Min_cycle;Max_cycle;Signal;HPM_P1;HPM_P2
2022/09/09 00:01:53;;;;;;;6.95;1.80;;;;;;;;;;5055158;28;20051;-68
2022/09/09 00:04:29;;;;;;;3.22;1.67;;;;;;;;;;5024866;28;20672;-68
2022/09/09 00:07:12;;;;;;;4.47;1.45;;;;;;;;;;5052953;28;20405;-69
2022/09/09 00:09:48;;;;;;;4.10;1.70;;;;;;;;;;5057755;28;20097;-69
2022/09/09 00:12:16;;;;;;;6.25;1.80;;;;;;;;;;5058800;28;20051;-68
2022/09/09 00:15:05;;;;;;;2.67;1.90;;;;;;;;;;5039800;28;20080;-69
2022/09/09 00:17:46;;;;;;;2.05;1.83;;;;;;;;;;5008261;28;20091;-69
2022/09/09 00:20:16;;;;;;;2.95;1.90;;;;;;;;;;5039411;28;20141;-69
2022/09/09 00:22:53;;;;;;;6.40;2.08;;;;;;;;;;5039687;28;20080;-69
2022/09/09 00:25:29;;;;;;;4.05;2.00;;;;;;;;;;5039273;28;20049;-69
2022/09/09 00:27:55;;;;;;;4.57;2.00;;;;;;;;;;5040235;28;20136;-69
2022/09/09 00:30:24;;;;;;;3.50;1.80;;;;;;;;;;5037190;28;20033;-69
2022/09/09 00:32:54;;;;;;;4.95;1.88;;;;;;;;;;5047758;28;20045;-69
2022/09/09 00:35:29;;;;;;;6.65;2.10;;;;;;;;;;5037636;28;20049;-68
2022/09/09 00:38:00;;;;;;;2.10;1.90;;;;;;;;;;5040053;28;20048;-69
2022/09/09 00:40:40;;;;;;;4.43;1.90;;;;;;;;;;5042428;28;20049;-69
2022/09/09 00:43:25;;;;;;;3.75;2.22;;;;;;;;;;5037450;28;20470;-68
2022/09/09 00:46:09;;;;;;;6.95;2.00;;;;;;;;;;5033879;28;20059;-68
2022/09/09 00:48:50;;;;;;;3.53;2.10;;;;;;;;;;5043743;28;20037;-67
2022/09/09 00:51:24;;;;;;;5.78;1.80;;;;;;;;;;5024438;28;20049;-69
2022/09/09 00:54:11;;;;;;;2.78;1.58;;;;;;;;;;5051273;28;20052;-69
2022/09/09 00:56:46;;;;;;;3.72;1.67;;;;;;;;;;5042424;28;20084;-69
2022/09/09 00:59:36;;;;;;;2.28;1.90;;;;;;;;;;5042410;28;20251;-68
2022/09/09 01:02:13;;;;;;;4.22;1.60;;;;;;;;;;5044455;28;20076;-67
2022/09/09 01:04:38;;;;;;;4.82;2.33;;;;;;;;;;5033288;28;20076;-67
2022/09/09 01:07:17;;;;;;;2.78;1.83;;;;;;;;;;5041380;28;20068;-67
2022/09/09 01:09:52;;;;;;;4.20;2.00;;;;;;;;;;5025459;28;20045;-69
2022/09/09 01:12:33;;;;;;;3.03;1.60;;;;;;;;;;5043772;28;20056;-68
2022/09/09 01:15:17;;;;;;;5.13;2.20;;;;;;;;;;5038496;28;20642;-68
2022/09/09 01:17:57;;;;;;;4.72;1.83;;;;;;;;;;5025462;28;20040;-67
2022/09/09 01:20:30;;;;;;;3.33;2.00;;;;;;;;;;5025307;28;20052;-67
2022/09/09 01:23:24;;;;;;;2.08;1.75;;;;;;;;;;5024685;28;20058;-68
2022/09/09 01:26:11;;;;;;;9.55;2.42;;;;;;;;;;5024185;28;20045;-68
2022/09/09 01:28:38;;;;;;;2.75;1.83;;;;;;;;;;5024975;28;20052;-69
2022/09/09 01:31:14;;;;;;;10.82;2.05;;;;;;;;;;5040889;28;20440;-69
2022/09/09 01:33:43;;;;;;;11.00;2.00;;;;;;;;;;5041946;28;20573;-66
2022/09/09 01:36:20;;;;;;;2.17;1.90;;;;;;;;;;5042238;28;20069;-68
2022/09/09 01:38:48;;;;;;;16.80;2.88;;;;;;;;;;5024913;28;20060;-67
2022/09/09 01:41:15;;;;;;;3.05;2.00;;;;;;;;;;5024435;28;20363;-69
2022/09/09 01:43:51;;;;;;;3.25;1.95;;;;;;;;;;5041819;28;20044;-67
2022/09/09 01:46:18;;;;;;;2.60;1.90;;;;;;;;;;5044361;28;20068;-70
2022/09/09 01:48:45;;;;;;;2.75;1.77;;;;;;;;;;5047422;28;20436;-68
2022/09/09 01:51:10;;;;;;;3.42;2.30;;;;;;;;;;5041460;28;20043;-68
2022/09/09 01:53:37;;;;;;;4.55;2.30;;;;;;;;;;5041425;28;20045;-68
2022/09/09 01:56:23;;;;;;;4.28;1.85;;;;;;;;;;5042755;28;20037;-65
2022/09/09 01:58:58;;;;;;;3.28;1.73;;;;;;;;;;5041433;28;20041;-68
2022/09/09 02:01:38;;;;;;;3.80;1.73;;;;;;;;;;5025620;28;20142;-68
2022/09/09 02:04:18;;;;;;;3.95;2.08;;;;;;;;;;5007974;28;20041;-68
2022/09/09 02:06:45;;;;;;;3.25;1.95;;;;;;;;;;5028415;28;20036;-70
2022/09/09 02:09:23;;;;;;;5.30;2.55;;;;;;;;;;5043296;28;20094;-68
2022/09/09 02:12:01;;;;;;;2.42;2.22;;;;;;;;;;5036004;28;20036;-69
2022/09/09 02:14:42;;;;;;;4.05;1.65;;;;;;;;;;5024394;28;20045;-68
2022/09/09 02:17:13;;;;;;;4.20;1.80;;;;;;;;;;5023936;28;20044;-68
2022/09/09 02:20:12;;;;;;;2.92;2.17;;;;;;;;;;5023958;28;20037;-69
2022/09/09 02:23:00;;;;;;;4.70;1.80;;;;;;;;;;5048623;28;20049;-70
2022/09/09 02:25:29;;;;;;;2.50;2.22;;;;;;;;;;5024124;28;20049;-69
2022/09/09 02:28:03;;;;;;;6.10;2.47;;;;;;;;;;5032274;28;20095;-66
2022/09/09 02:30:31;;;;;;;4.90;2.55;;;;;;;;;;5040354;28;20128;-70
2022/09/09 02:32:59;;;;;;;3.50;2.33;;;;;;;;;;5022501;28;20457;-68
2022/09/09 02:35:46;;;;;;;4.85;2.10;;;;;;;;;;5041263;28;20045;-69
2022/09/09 02:38:16;;;;;;;6.70;2.22;;;;;;;;;;5024523;28;20480;-67
2022/09/09 02:40:50;;;;;;;4.60;2.33;;;;;;;;;;5040472;28;20051;-68
2022/09/09 02:43:18;;;;;;;7.10;2.00;;;;;;;;;;5038793;28;20154;-68
2022/09/09 02:45:55;;;;;;;2.42;1.63;;;;;;;;;;5026603;28;20052;-68
2022/09/09 02:48:29;;;;;;;5.97;2.30;;;;;;;;;;5041592;28;20378;-68
2022/09/09 02:51:23;;;;;;;2.95;1.90;;;;;;;;;;5038667;28;20037;-69
2022/09/09 02:54:03;;;;;;;6.47;1.80;;;;;;;;;;5006182;28;20043;-68
2022/09/09 02:56:33;;;;;;;3.90;1.88;;;;;;;;;;5039833;28;20539;-67
2022/09/09 02:59:03;;;;;;;4.78;1.73;;;;;;;;;;5022930;28;20059;-68
2022/09/09 03:01:29;;;;;;;2.15;1.70;;;;;;;;;;5039910;28;20055;-68
2022/09/09 03:03:55;;;;;;;1.70;1.60;;;;;;;;;;5040118;28;20048;-70
2022/09/09 03:06:21;;;;;;;2.88;1.90;;;;;;;;;;5041291;28;20128;-69
2022/09/09 03:08:53;;;;;;;2.80;1.75;;;;;;;;;;5029235;28;20048;-68
2022/09/09 03:11:23;;;;;;;2.10;1.70;;;;;;;;;;5038976;28;20041;-68
2022/09/09 03:13:49;;;;;;;3.22;1.80;;;;;;;;;;5040945;28;20111;-69
2022/09/09 03:16:15;;;;;;;3.45;1.80;;;;;;;;;;5037751;28;20139;-68
2022/09/09 03:18:45;;;;;;;2.15;1.95;;;;;;;;;;5039643;28;20059;-69
2022/09/09 03:21:11;;;;;;;3.35;1.50;;;;;;;;;;5039024;28;20126;-68
2022/09/09 03:23:37;;;;;;;7.57;2.80;;;;;;;;;;5039577;28;20394;-70
2022/09/09 03:26:03;;;;;;;1.60;1.50;;;;;;;;;;5027594;28;20513;-67
2022/09/09 03:28:38;;;;;;;6.45;1.80;;;;;;;;;;5025539;28;20036;-67
2022/09/09 03:31:06;;;;;;;1.65;1.55;;;;;;;;;;5028159;28;20167;-68
2022/09/09 03:33:40;;;;;;;4.90;1.83;;;;;;;;;;5039648;28;20052;-68
2022/09/09 03:36:08;;;;;;;3.15;1.52;;;;;;;;;;5039283;28;20056;-68
2022/09/09 03:38:34;;;;;;;3.78;1.73;;;;;;;;;;5005295;28;20128;-68
2022/09/09 03:41:01;;;;;;;4.50;1.42;;;;;;;;;;5022069;28;20044;-68
2022/09/09 03:43:29;;;;;;;4.78;1.50;;;;;;;;;;5038941;28;20071;-68
2022/09/09 03:45:56;;;;;;;2.13;1.40;;;;;;;;;;5023996;28;20041;-68
2022/09/09 03:48:24;;;;;;;1.95;1.45;;;;;;;;;;5039622;28;20041;-68
2022/09/09 03:50:54;;;;;;;2.78;1.38;;;;;;;;;;5033126;28;20036;-70
2022/09/09 03:53:21;;;;;;;3.13;1.40;;;;;;;;;;5005088;28;20130;-68
2022/09/09 03:55:49;;;;;;;5.45;1.60;;;;;;;;;;5002600;28;20093;-70
2022/09/09 03:58:18;;;;;;;1.92;1.40;;;;;;;;;;5002807;28;20497;-68
2022/09/09 04:00:56;;;;;;;1.50;1.40;;;;;;;;;;4985393;28;20033;-68
2022/09/09 04:03:24;;;;;;;3.88;1.40;;;;;;;;;;5018555;28;20057;-69
2022/09/09 04:05:53;;;;;;;5.88;1.45;;;;;;;;;;5013517;28;20047;-68
2022/09/09 04:08:21;;;;;;;4.53;1.48;;;;;;;;;;5005410;28;20040;-67
2022/09/09 04:10:48;;;;;;;4.60;1.83;;;;;;;;;;5004917;28;20045;-68
2022/09/09 04:13:17;;;;;;;2.40;1.40;;;;;;;;;;5020734;28;20052;-68
2022/09/09 04:15:49;;;;;;;4.95;1.60;;;;;;;;;;5037227;28;20406;-69
2022/09/09 04:18:15;;;;;;;;;;;;;;;;;;5022753;28;20585;-67
2022/09/09 04:20:40;;;;;;;7.07;1.55;;;;;;;;;;5040088;28;20406;-67
2022/09/09 04:23:06;;;;;;;4.60;1.75;;;;;;;;;;5036819;28;20045;-68
2022/09/09 04:25:32;;;;;;;2.35;1.50;;;;;;;;;;5039609;28;20103;-67
2022/09/09 04:27:59;;;;;;;1.60;1.50;;;;;;;;;;5021783;28;20221;-69
2022/09/09 04:30:27;;;;;;;2.53;1.60;;;;;;;;;;5023224;28;20051;-66
2022/09/09 04:32:52;;;;;;;2.13;1.70;;;;;;;;;;5021932;28;20568;-67
2022/09/09 04:35:19;;;;;;;5.28;1.60;;;;;;;;;;5039792;28;20048;-69
2022/09/09 04:37:46;;;;;;;3.78;1.70;;;;;;;;;;5022429;28;20053;-68
2022/09/09 04:40:11;;;;;;;3.90;1.80;;;;;;;;;;5038445;28;20052;-70
2022/09/09 04:42:38;;;;;;;2.92;1.80;;;;;;;;;;5039975;28;20536;-67
2022/09/09 04:45:06;;;;;;;3.15;1.80;;;;;;;;;;5020670;28;20724;-70
2022/09/09 04:47:32;;;;;;;3.60;1.67;;;;;;;;;;5022888;28;20056;-69
2022/09/09 04:49:57;;;;;;;4.18;1.60;;;;;;;;;;5022076;28;20052;-67
2022/09/09 04:52:24;;;;;;;2.17;1.58;;;;;;;;;;5021569;28;20066;-67
2022/09/09 04:54:49;;;;;;;3.28;1.58;;;;;;;;;;5043975;28;20033;-68
2022/09/09 04:57:15;;;;;;;3.67;1.70;;;;;;;;;;5024176;28;20044;-69
2022/09/09 04:59:40;;;;;;;3.55;1.90;;;;;;;;;;5021829;28;20084;-69
2022/09/09 05:02:06;;;;;;;8.10;1.85;;;;;;;;;;5038440;28;20052;-67
2022/09/09 05:04:31;;;;;;;5.57;1.98;;;;;;;;;;5021632;28;20041;-68
2022/09/09 05:06:57;;;;;;;5.45;2.00;;;;;;;;;;5019797;28;20114;-69
2022/09/09 05:09:23;;;;;;;4.35;1.90;;;;;;;;;;5038764;28;20049;-69
2022/09/09 05:11:51;;;;;;;3.53;1.60;;;;;;;;;;5041591;28;20079;-67
2022/09/09 05:14:25;;;;;;;11.40;1.73;;;;;;;;;;5023059;28;20053;-70
2022/09/09 05:16:51;;;;;;;8.40;1.92;;;;;;;;;;5026489;28;20619;-70
2022/09/09 05:19:18;;;;;;;2.38;1.30;;;;;;;;;;5037521;28;20048;-69
2022/09/09 05:21:47;;;;;;;1.52;1.17;;;;;;;;;;5021887;28;20052;-66
2022/09/09 05:24:15;;;;;;;3.25;1.40;;;;;;;;;;5021395;28;20886;-69
2022/09/09 05:26:41;;;;;;;2.58;1.50;;;;;;;;;;5021457;28;20114;-67
2022/09/09 05:29:08;;;;;;;1.48;1.15;;;;;;;;;;5035741;28;20045;-68
2022/09/09 05:31:33;;;;;;;2.58;1.02;;;;;;;;;;5037691;28;20417;-68
2022/09/09 05:34:02;;;;;;;1.38;1.20;;;;;;;;;;5039807;28;20426;-68
2022/09/09 05:36:28;;;;;;;1.30;1.20;;;;;;;;;;5030368;28;20132;-69
2022/09/09 05:38:55;;;;;;;1.20;1.10;;;;;;;;;;5039179;28;20033;-69
2022/09/09 05:41:22;;;;;;;1.98;1.05;;;;;;;;;;5032986;28;20123;-68
2022/09/09 05:43:49;;;;;;;1.38;0.93;;;;;;;;;;5024712;28;20041;-68
2022/09/09 05:46:17;;;;;;;1.55;1.10;;;;;;;;;;5041198;28;21044;-68
2022/09/09 05:48:47;;;;;;;2.22;1.50;;;;;;;;;;5043081;28;20124;-68
2022/09/09 05:51:16;;;;;;;3.17;1.50;;;;;;;;;;5039740;28;20087;-68
2022/09/09 05:53:42;;;;;;;5.00;1.10;;;;;;;;;;5041060;28;20477;-68
2022/09/09 05:56:19;;;;;;;3.63;1.27;;;;;;;;;;5040807;28;20052;-69
2022/09/09 05:58:49;;;;;;;3.92;0.95;;;;;;;;;;5024485;28;20121;-68
2022/09/09 06:01:17;;;;;;;1.88;1.10;;;;;;;;;;5041449;28;20124;-68
2022/09/09 06:03:44;;;;;;;2.05;0.90;;;;;;;;;;5033674;28;20040;-68
2022/09/09 06:06:13;;;;;;;1.23;1.13;;;;;;;;;;5025674;28;20045;-69
2022/09/09 06:08:42;;;;;;;2.05;1.10;;;;;;;;;;5023757;28;20611;-68
2022/09/09 06:11:13;;;;;;;2.45;1.30;;;;;;;;;;5041064;28;20520;-68
2022/09/09 06:13:40;;;;;;;3.00;2.53;;;;;;;;;;5028807;28;20055;-69
2022/09/09 06:16:08;;;;;;;2.97;2.58;;;;;;;;;;5040080;28;20041;-67
2022/09/09 06:18:34;;;;;;;3.10;2.80;;;;;;;;;;5024605;28;20056;-69
2022/09/09 06:21:04;;;;;;;5.65;2.58;;;;;;;;;;5039748;28;20041;-68
2022/09/09 06:23:30;;;;;;;5.78;2.10;;;;;;;;;;5049644;28;20041;-67
2022/09/09 06:26:05;;;;;;;2.97;1.70;;;;;;;;;;5032112;28;20052;-68
2022/09/09 06:28:31;;;;;;;7.22;1.85;;;;;;;;;;5031754;28;20040;-68
2022/09/09 06:31:02;;;;;;;2.83;1.83;;;;;;;;;;5049575;28;20037;-69
2022/09/09 06:33:34;;;;;;;2.30;2.10;;;;;;;;;;5043376;28;20053;-67
2022/09/09 06:36:03;;;;;;;6.90;2.20;;;;;;;;;;5034113;28;20045;-67
2022/09/09 06:38:29;;;;;;;4.97;2.10;;;;;;;;;;5035237;28;20044;-68
2022/09/09 06:40:58;;;;;;;6.10;2.20;;;;;;;;;;5039981;28;20045;-67
2022/09/09 06:43:24;;;;;;;6.22;1.83;;;;;;;;;;5024138;28;20819;-68
2022/09/09 06:45:58;;;;;;;3.20;2.13;;;;;;;;;;5024820;28;20118;-68
2022/09/09 06:48:25;;;;;;;4.25;2.00;;;;;;;;;;5042146;28;20044;-68
2022/09/09 06:51:21;;;;;;;8.30;1.90;;;;;;;;;;5023932;28;20370;-68
2022/09/09 06:53:47;;;;;;;5.68;2.40;;;;;;;;;;5008848;28;20591;-68
2022/09/09 06:56:18;;;;;;;3.55;2.00;;;;;;;;;;5022924;28;20158;-68
2022/09/09 06:58:44;;;;;;;2.42;1.80;;;;;;;;;;5041116;28;20131;-69
2022/09/09 07:01:16;;;;;;;5.00;2.17;;;;;;;;;;5046910;28;20578;-68
2022/09/09 07:03:45;;;;;;;5.70;1.90;;;;;;;;;;5024927;28;20675;-69
2022/09/09 07:06:28;;;;;;;4.55;1.67;;;;;;;;;;5030904;28;20119;-69
2022/09/09 07:08:58;;;;;;;2.08;1.40;;;;;;;;;;5028184;28;20040;-69
2022/09/09 07:11:29;;;;;;;3.75;1.67;;;;;;;;;;5038977;28;20083;-69
2022/09/09 07:13:56;;;;;;;3.85;1.55;;;;;;;;;;5032682;28;20036;-68
2022/09/09 07:16:25;;;;;;;3.50;1.80;;;;;;;;;;5033131;28;20076;-69
2022/09/09 07:18:57;;;;;;;3.40;1.77;;;;;;;;;;5027886;28;20033;-69
2022/09/09 07:21:26;;;;;;;7.15;2.10;;;;;;;;;;5018945;28;20128;-68
2022/09/09 07:23:52;;;;;;;2.95;1.67;;;;;;;;;;5009641;28;20041;-69
2022/09/09 07:26:20;;;;;;;2.38;1.30;;;;;;;;;;5016071;28;20068;-69
2022/09/09 07:28:46;;;;;;;1.67;1.58;;;;;;;;;;5032374;28;20052;-70
2022/09/09 07:31:17;;;;;;;4.00;1.52;;;;;;;;;;4996334;28;20041;-69
2022/09/09 07:33:44;;;;;;;2.40;1.75;;;;;;;;;;5016648;28;20126;-69
2022/09/09 07:36:12;;;;;;;3.95;1.50;;;;;;;;;;4999572;28;20080;-68
2022/09/09 07:38:45;;;;;;;1.55;1.45;;;;;;;;;;5033018;28;20042;-68
2022/09/09 07:41:17;;;;;;;3.05;1.52;;;;;;;;;;4998758;28;20049;-69
2022/09/09 07:43:45;;;;;;;1.63;1.40;;;;;;;;;;5000430;28;20041;-68
2022/09/09 07:46:13;;;;;;;4.93;1.60;;;;;;;;;;4998608;28;20044;-69
2022/09/09 07:48:51;;;;;;;3.33;1.08;;;;;;;;;;4999827;28;20073;-68
2022/09/09 07:51:22;;;;;;;2.65;1.42;;;;;;;;;;4998599;28;20383;-68
2022/09/09 07:53:53;;;;;;;2.35;1.40;;;;;;;;;;5001163;28;20064;-69
2022/09/09 07:56:22;;;;;;;2.40;1.33;;;;;;;;;;5017899;28;20951;-69
2022/09/09 07:58:50;;;;;;;3.08;1.63;;;;;;;;;;5017269;28;20168;-68
2022/09/09 08:01:22;;;;;;;1.77;1.27;;;;;;;;;;4999684;28;20037;-68
2022/09/09 08:03:53;;;;;;;1.77;1.33;;;;;;;;;;5015353;28;20124;-67
2022/09/09 08:06:19;;;;;;;3.17;1.60;;;;;;;;;;5017659;28;20057;-68
2022/09/09 08:08:47;;;;;;;9.52;1.60;;;;;;;;;;4999878;28;20034;-68
2022/09/09 08:11:14;;;;;;;3.17;1.55;;;;;;;;;;5000221;28;20045;-68
2022/09/09 08:13:42;;;;;;;1.52;1.30;;;;;;;;;;5000690;28;20041;-68
2022/09/09 08:16:11;;;;;;;4.20;1.50;;;;;;;;;;5002504;28;20049;-68
2022/09/09 08:18:38;;;;;;;5.00;1.30;;;;;;;;;;5017922;28;20049;-68
2022/09/09 08:21:12;;;;;;;7.85;1.55;;;;;;;;;;5018264;28;20042;-68
2022/09/09 08:23:42;;;;;;;1.48;1.00;;;;;;;;;;5016833;28;20056;-69
2022/09/09 08:26:14;;;;;;;13.35;1.70;;;;;;;;;;5000722;28;20037;-68
2022/09/09 08:28:41;;;;;;;4.20;1.30;;;;;;;;;;5016288;28;20159;-68
2022/09/09 08:31:21;;;;;;;1.33;1.23;;;;;;;;;;4999978;28;20156;-70
2022/09/09 08:33:48;;;;;;;1.90;1.17;;;;;;;;;;5018247;28;20128;-68
2022/09/09 08:36:16;;;;;;;2.25;1.30;;;;;;;;;;4999854;28;20061;-69
2022/09/09 08:38:42;;;;;;;1.20;1.02;;;;;;;;;;4999244;28;20045;-69
2022/09/09 08:41:32;;;;;;;0.85;0.85;;;;;;;;;;5000225;28;20103;-68
2022/09/09 08:44:14;;;;;;;1.23;1.10;;;;;;;;;;5000586;28;20085;-68
2022/09/09 08:46:52;;;;;;;1.00;0.90;;;;;;;;;;4998439;28;20063;-69
2022/09/09 08:49:53;;;;;;;2.45;1.17;;;;;;;;;;4997002;28;20177;-68
2022/09/09 08:52:23;;;;;;;5.38;0.90;;;;;;;;;;4999284;28;20049;-70
2022/09/09 08:54:50;;;;;;;59.45;17.90;;;;;;;;;;5013945;28;20045;-69
2022/09/09 08:57:28;;;;;;;3.03;1.85;;;;;;;;;;5031886;28;21654;-69
2022/09/09 08:59:56;;;;;;;2.97;1.77;;;;;;;;;;5017747;28;20033;-70
2022/09/09 09:02:41;;;;;;;3.42;1.40;;;;;;;;;;5000607;28;20414;-69
2022/09/09 09:05:15;;;;;;;1.70;1.02;;;;;;;;;;5033067;28;20037;-69
2022/09/09 09:08:00;;;;;;;2.00;0.88;;;;;;;;;;5000902;28;20077;-70
2022/09/09 09:10:47;;;;;;;1.85;1.20;;;;;;;;;;5005470;28;20056;-70
2022/09/09 09:13:29;;;;;;;2.10;1.38;;;;;;;;;;5005206;28;20056;-70
2022/09/09 09:16:10;;;;;;;3.00;1.00;;;;;;;;;;5005133;28;20132;-70
2022/09/09 09:18:37;;;;;;;3.10;1.40;;;;;;;;;;5004684;28;20045;-70
2022/09/09 09:21:18;;;;;;;4.55;1.50;;;;;;;;;;4988435;28;20049;-70
2022/09/09 09:23:59;;;;;;;3.15;1.20;;;;;;;;;;5037631;28;20055;-71
2022/09/09 09:26:32;;;;;;;2.10;1.45;;;;;;;;;;5020942;28;20053;-70
2022/09/09 09:29:00;;;;;;;3.77;1.70;;;;;;;;;;5004701;28;20405;-70
2022/09/09 09:31:29;;;;;;;1.75;1.40;;;;;;;;;;5022342;28;20072;-70
2022/09/09 09:33:56;;;;;;;2.00;1.40;;;;;;;;;;5005145;28;20033;-70
2022/09/09 09:36:34;;;;;;;2.08;1.48;;;;;;;;;;5003642;28;20042;-70
2022/09/09 09:39:03;;;;;;;1.80;1.67;;;;;;;;;;5003001;28;20065;-70
2022/09/09 09:41:35;;;;;;;3.65;1.42;;;;;;;;;;5003483;28;20037;-70
2022/09/09 09:44:02;;;;;;;4.32;1.50;;;;;;;;;;5004495;28;20569;-70
2022/09/09 09:46:28;;;;;;;6.15;1.25;;;;;;;;;;5004357;28;20521;-70
2022/09/09 09:49:05;;;;;;;5.05;1.27;;;;;;;;;;5003203;28;20378;-70
2022/09/09 09:51:33;;;;;;;2.65;1.50;;;;;;;;;;5003373;28;20084;-70
2022/09/09 09:54:29;;;;;;;2.95;1.20;;;;;;;;;;5037075;28;20072;-70
2022/09/09 09:57:11;;;;;;;3.42;1.00;;;;;;;;;;5002950;28;20136;-71
2022/09/09 09:59:39;;;;;;;1.42;1.20;;;;;;;;;;5004070;28;20033;-70
2022/09/09 10:02:14;;;;;;;3.33;1.70;;;;;;;;;;5003658;28;20045;-70
2022/09/09 10:04:39;;;;;;;7.95;1.20;;;;;;;;;;5004770;28;20085;-71
2022/09/09 10:07:20;;;;;;;4.75;1.35;;;;;;;;;;5004570;28;20124;-70
2022/09/09 10:09:57;;;;;;;4.05;1.48;;;;;;;;;;5022507;28;20050;-70
2022/09/09 10:12:52;;;;;;;3.28;1.33;;;;;;;;;;5022846;28;20045;-70
2022/09/09 10:15:18;;;;;;;2.03;1.30;;;;;;;;;;5020857;28;20081;-70
2022/09/09 10:17:52;;;;;;;1.38;1.05;;;;;;;;;;5022980;28;20076;-70
2022/09/09 10:20:33;;;;;;;4.28;2.05;;;;;;;;;;5021853;28;20088;-70
2022/09/09 10:23:34;;;;;;;4.75;2.10;;;;;;;;;;5000071;28;20053;-70
2022/09/09 10:26:23;;;;;;;7.05;1.25;;;;;;;;;;5019400;28;20044;-70
2022/09/09 10:28:58;;;;;;;1.83;0.90;;;;;;;;;;5004711;28;20100;-69
2022/09/09 10:31:38;;;;;;;0.70;0.70;;;;;;;;;;5024524;28;20691;-70
2022/09/09 10:34:44;;;;;;;17.42;2.13;;;;;;;;;;5031248;28;20050;-69
2022/09/09 10:37:28;;;;;;;2.00;0.90;;;;;;;;;;5020734;28;20045;-69
2022/09/09 10:40:11;;;;;;;1.70;1.13;;;;;;;;;;5030160;28;20047;-69
2022/09/09 10:42:36;;;;;;;3.00;1.30;;;;;;;;;;5037598;28;20522;-70
2022/09/09 10:45:16;;;;;;;2.13;0.90;;;;;;;;;;5026116;28;20057;-69
2022/09/09 10:48:01;;;;;;;1.20;0.90;;;;;;;;;;5026214;28;20041;-69
2022/09/09 10:50:48;;;;;;;1.42;0.90;;;;;;;;;;5024897;28;20085;-69
2022/09/09 10:53:47;;;;;;;1.58;0.85;;;;;;;;;;5025153;28;20052;-69
2022/09/09 10:56:16;;;;;;;3.78;1.10;;;;;;;;;;5026012;28;20051;-69
2022/09/09 10:58:55;;;;;;;1.05;0.90;;;;;;;;;;5039280;28;20448;-70
2022/09/09 11:01:25;;;;;;;1.67;1.00;;;;;;;;;;5037188;28;20044;-69
2022/09/09 11:04:16;;;;;;;3.13;1.08;;;;;;;;;;5025408;28;20115;-69
2022/09/09 11:06:47;;;;;;;2.15;1.08;;;;;;;;;;5027051;28;20045;-69
2022/09/09 11:09:17;;;;;;;4.63;1.20;;;;;;;;;;5024574;28;20121;-69
2022/09/09 11:11:52;;;;;;;1.77;0.95;;;;;;;;;;5034421;28;20045;-69
2022/09/09 11:14:22;;;;;;;2.40;0.82;;;;;;;;;;5024396;28;20079;-68
2022/09/09 11:16:56;;;;;;;2.55;1.10;;;;;;;;;;5026505;28;20040;-69
2022/09/09 11:19:31;;;;;;;1.83;1.10;;;;;;;;;;5027708;28;20057;-69
2022/09/09 11:22:02;;;;;;;1.30;1.05;;;;;;;;;;5022545;28;20041;-70
2022/09/09 11:24:45;;;;;;;3.95;1.30;;;;;;;;;;5022307;28;20557;-70
2022/09/09 11:27:18;;;;;;;1.17;0.90;;;;;;;;;;5023542;28;20508;-69
2022/09/09 11:29:57;;;;;;;3.28;1.25;;;;;;;;;;5012960;28;20048;-69
2022/09/09 11:32:23;;;;;;;1.65;0.90;;;;;;;;;;5028924;28;20044;-69
2022/09/09 11:35:26;;;;;;;0.85;0.85;;;;;;;;;;5050026;28;20063;-69
2022/09/09 11:38:04;;;;;;;0.80;0.70;;;;;;;;;;5024265;28;20033;-69
2022/09/09 11:40:32;;;;;;;1.90;0.80;;;;;;;;;;5045154;28;20161;-69
2022/09/09 11:43:12;;;;;;;1.80;0.55;;;;;;;;;;5030261;28;20212;-72
2022/09/09 11:45:41;;;;;;;0.70;0.70;;;;;;;;;;5032818;28;20045;-68
2022/09/09 11:48:29;;;;;;;1.05;0.85;;;;;;;;;;5029029;28;20060;-68
2022/09/09 11:51:00;;;;;;;0.80;0.80;;;;;;;;;;5025996;28;20056;-68
2022/09/09 11:53:29;;;;;;;1.58;0.93;;;;;;;;;;5011310;28;20118;-69
2022/09/09 11:56:09;;;;;;;2.35;0.90;;;;;;;;;;5009225;28;20047;-68
2022/09/09 11:58:41;;;;;;;0.70;0.70;;;;;;;;;;5035881;28;20513;-68
2022/09/09 12:01:48;;;;;;;1.10;0.60;;;;;;;;;;5031833;28;20128;-68
2022/09/09 12:04:16;;;;;;;1.55;0.70;;;;;;;;;;4961935;28;20050;-68
2022/09/09 12:06:56;;;;;;;1.02;0.77;;;;;;;;;;4985805;28;20426;-68
2022/09/09 12:09:43;;;;;;;1.95;0.60;;;;;;;;;;4980491;28;20078;-68
2022/09/09 12:12:13;;;;;;;1.02;0.60;;;;;;;;;;4981232;28;20501;-69
2022/09/09 12:14:54;;;;;;;1.10;0.45;;;;;;;;;;4982200;28;20857;-68
2022/09/09 12:17:24;;;;;;;0.60;0.60;;;;;;;;;;4980709;28;20099;-68
2022/09/09 12:20:14;;;;;;;1.45;0.80;;;;;;;;;;4981153;28;20572;-68
2022/09/09 12:22:54;;;;;;;3.30;0.50;;;;;;;;;;4979320;28;20149;-68
2022/09/09 12:25:30;;;;;;;1.00;0.90;;;;;;;;;;4978273;28;20073;-68
2022/09/09 12:28:08;;;;;;;3.90;1.02;;;;;;;;;;4977901;28;20137;-68
2022/09/09 12:31:03;;;;;;;2.47;0.60;;;;;;;;;;4978022;28;20050;-68
2022/09/09 12:33:36;;;;;;;1.58;0.63;;;;;;;;;;4961079;28;20098;-68
2022/09/09 12:36:04;;;;;;;5.18;0.68;;;;;;;;;;4969200;28;20046;-68
2022/09/09 12:38:34;;;;;;;0.95;0.40;;;;;;;;;;4969750;28;20580;-68
2022/09/09 12:41:00;;;;;;;1.83;0.70;;;;;;;;;;4988097;28;20072;-68
2022/09/09 12:43:27;;;;;;;2.13;0.65;;;;;;;;;;5043368;28;20091;-70
2022/09/09 12:45:57;;;;;;;3.60;0.50;;;;;;;;;;5046154;28;20045;-71
2022/09/09 12:48:36;;;;;;;0.55;0.47;;;;;;;;;;5044474;28;20049;-70
2022/09/09 12:51:04;;;;;;;0.45;0.32;;;;;;;;;;5049342;28;20036;-69
2022/09/09 12:53:38;;;;;;;2.72;0.47;;;;;;;;;;5044535;28;20551;-69
2022/09/09 12:56:09;;;;;;;3.03;0.50;;;;;;;;;;5044255;28;20643;-70
2022/09/09 12:58:37;;;;;;;1.70;0.60;;;;;;;;;;5047570;28;20045;-68
2022/09/09 13:01:05;;;;;;;1.33;0.40;;;;;;;;;;5048020;28;20440;-69
2022/09/09 13:03:31;;;;;;;2.38;0.50;;;;;;;;;;5053936;28;20055;-68
2022/09/09 13:06:34;;;;;;;1.67;0.50;;;;;;;;;;5046466;28;20048;-69
2022/09/09 13:09:03;;;;;;;0.30;0.30;;;;;;;;;;5044759;28;20041;-69
2022/09/09 13:11:46;;;;;;;1.08;0.40;;;;;;;;;;5045062;28;20064;-69
2022/09/09 13:14:19;;;;;;;1.55;0.40;;;;;;;;;;5045283;28;20045;-69
2022/09/09 13:16:55;;;;;;;0.47;0.47;;;;;;;;;;5048683;28;20081;-69
2022/09/09 13:19:21;;;;;;;0.77;0.43;;;;;;;;;;5047528;28;20053;-69
2022/09/09 13:21:47;;;;;;;1.92;0.60;;;;;;;;;;5045046;28;20047;-69
2022/09/09 13:24:29;;;;;;;2.75;0.30;;;;;;;;;;5050176;28;20057;-69
2022/09/09 13:26:56;;;;;;;2.38;0.43;;;;;;;;;;5048898;28;20127;-69
2022/09/09 13:29:22;;;;;;;1.17;0.70;;;;;;;;;;5045141;28;20056;-69
2022/09/09 13:31:52;;;;;;;0.63;0.50;;;;;;;;;;5050552;28;20097;-69
2022/09/09 13:34:30;;;;;;;1.65;0.65;;;;;;;;;;5056917;28;20489;-69
2022/09/09 13:37:05;;;;;;;3.00;0.40;;;;;;;;;;5027061;28;20183;-69
2022/09/09 13:39:33;;;;;;;0.45;0.30;;;;;;;;;;5005870;28;20056;-69
2022/09/09 13:41:58;;;;;;;0.32;0.32;;;;;;;;;;5014457;28;20073;-69
2022/09/09 13:44:26;;;;;;;1.27;0.47;;;;;;;;;;5040725;28;20155;-69
2022/09/09 13:47:16;;;;;;;1.63;0.52;;;;;;;;;;5047515;28;20040;-69
2022/09/09 13:49:41;;;;;;;0.77;0.47;;;;;;;;;;5025608;28;20052;-68
2022/09/09 13:52:13;;;;;;;3.60;0.93;;;;;;;;;;5046378;28;20040;-68
2022/09/09 13:54:39;;;;;;;0.43;0.43;;;;;;;;;;5052863;28;20105;-68
2022/09/09 13:57:12;;;;;;;1.15;0.57;;;;;;;;;;5047541;28;20049;-68
2022/09/09 13:59:38;;;;;;;2.35;0.50;;;;;;;;;;5047892;28;20049;-68
2022/09/09 14:02:03;;;;;;;0.63;0.60;;;;;;;;;;5052687;28;20095;-68
2022/09/09 14:04:30;;;;;;;0.60;0.50;;;;;;;;;;5057462;28;20052;-69
2022/09/09 14:06:56;;;;;;;2.30;0.60;;;;;;;;;;5056382;28;20059;-69
2022/09/09 14:09:21;;;;;;;1.85;0.70;;;;;;;;;;5051373;28;20033;-68
2022/09/09 14:11:47;;;;;;;1.95;0.77;;;;;;;;;;5054421;28;20434;-69
2022/09/09 14:14:12;;;;;;;0.70;0.68;;;;;;;;;;5053278;28;20048;-69
2022/09/09 14:16:38;;;;;;;1.20;0.77;;;;;;;;;;5047125;28;20057;-70
2022/09/09 14:19:04;;;;;;;1.13;0.80;;;;;;;;;;5040528;28;20078;-70
2022/09/09 14:21:32;;;;;;;1.15;0.77;;;;;;;;;;5054446;28;20048;-69
2022/09/09 14:23:58;;;;;;;1.67;0.55;;;;;;;;;;5050782;28;20071;-70
2022/09/09 14:26:23;;;;;;;2.53;0.98;;;;;;;;;;5047736;28;20135;-70
2022/09/09 14:28:50;;;;;;;0.60;0.60;;;;;;;;;;5042388;28;20043;-71
2022/09/09 14:31:17;;;;;;;1.90;0.90;;;;;;;;;;5046241;28;20381;-71
2022/09/09 14:33:44;;;;;;;0.88;0.85;;;;;;;;;;5045519;28;20842;-70
2022/09/09 14:36:10;;;;;;;1.10;0.85;;;;;;;;;;5042175;28;20506;-70
2022/09/09 14:38:41;;;;;;;0.70;0.70;;;;;;;;;;5048063;28;20041;-69
2022/09/09 14:41:10;;;;;;;1.50;0.80;;;;;;;;;;5053539;28;20040;-68
2022/09/09 14:43:35;;;;;;;2.40;0.80;;;;;;;;;;5053832;28;20044;-68
2022/09/09 14:46:12;;;;;;;3.13;0.90;;;;;;;;;;5049535;28;20048;-70
2022/09/09 14:48:40;;;;;;;1.02;0.88;;;;;;;;;;5041963;28;20045;-69
2022/09/09 14:51:15;;;;;;;1.23;0.85;;;;;;;;;;5049543;28;20040;-69
2022/09/09 14:53:42;;;;;;;1.58;0.90;;;;;;;;;;5050084;28;20048;-71
2022/09/09 14:56:10;;;;;;;1.58;1.00;;;;;;;;;;5041028;28;20068;-71
2022/09/09 14:58:37;;;;;;;2.13;1.00;;;;;;;;;;5050496;28;20452;-70
2022/09/09 15:01:11;;;;;;;1.67;1.00;;;;;;;;;;5042898;28;20055;-70
2022/09/09 15:03:40;;;;;;;0.82;0.80;;;;;;;;;;5049231;28;20045;-69
2022/09/09 15:06:11;;;;;;;1.00;0.90;;;;;;;;;;5057325;28;20504;-70
2022/09/09 15:08:38;;;;;;;10.27;1.05;;;;;;;;;;5043721;28;20518;-69
2022/09/09 15:11:07;;;;;;;1.67;0.90;;;;;;;;;;5040743;28;20053;-69
2022/09/09 15:13:33;;;;;;;2.70;0.93;;;;;;;;;;5041410;28;20045;-70
2022/09/09 15:16:13;;;;;;;1.88;1.00;;;;;;;;;;5050812;28;20044;-70